Pagrindinis puslapis
METAR-TAF:

METAR-TAF

Oro uostai :

Linšiopingas, Švedija

platuma: 58-24N, ilguma: 015-41E, Aukštis: 52 m

Dabartinis oras

Ataskaita buvo paskelbta 28 minutes, ne 09:20 UTC
Vėjas 10 kt iš Pietvakarių, svyruoja nuo Pietų/Pietvakarių ir Vakarų
Temperatūra 7°C
Drėgmė 76%
Slėgis 983 hPa
Matomumas 10 km arba daugiau
Mažai debesys ne aukštis 2500 ft
Išsisklaidę debesys ne aukštis 3600 ft

METAR: ESSL 090920Z 23010KT 200V270 9999 FEW025 SCT036 07/03 Q0983 R11/19//95

Laikas: 10:48 (09:48 UTC)

Prognozė

Ataskaita buvo paskelbta 1 valandą ir 18 minutes, ne 08:30 UTC
Prognozė galioja nuo 09 metu 09 UTC su 09 metu 18 UTC
Vėjas 12 kt iš Pietvakarių
Matomumas 10 km arba daugiau
Su prošvaistėmis ne aukštis 3000 ft
Tikimybė 40%
nuo 09 metu 09 UTC su 09 metu 13 UTC
Su prošvaistėmis ne aukštis 2000 ft, Liūtiniai kamuoliniai debesys.
Tikimybė 40%
nuo 09 metu 13 UTC su 09 metu 18 UTC
Su prošvaistėmis ne aukštis 1500 ft, Liūtiniai kamuoliniai debesys.
lietus

TAF: ESSL 090830Z 0909/0918 22012KT 9999 BKN030 PROB40 0909/0913 BKN020CB PROB40 0913/0918 SHRA BKN015CB

Orai ataskaitas ir orų prognozės (METAR, TAF).

turimą stotys yra geltonos ir raudonos taškus žemėlapyje.

Perkelti pele per norėdami pamatyti stoties vardą.

Tada spustelėkite, norėdami matyti oro stebėjimo ir prognozės.

Norėdami pakeisti žemėlapį: spustelėkite ant žalios mygtukų su juodo kryžiaus žemyn,; žalią mygtuką su brūkšneliu, jei norite nutolinti; arba žalių rodyklių gretimoms žemėlapius.


METAR-TAF: